Time;durP1;ratioP1;P1;durP2;ratioP2;P2;SDS_P1;SDS_P2;PMS_P1;PMS_P2;Temp;Humidity;BMP_temperature;BMP_pressure;BME280_temperature;BME280_humidity;BME280_pressure;Samples;Min_cycle;Max_cycle;Signal;HPM_P1;HPM_P2
2023/10/14 00:01:24;;;;;;;5.90;4.47;;;;;;;22.28;74.07;99428.28;5044932;28;20215;-86
2023/10/14 00:03:50;;;;;;;7.57;5.30;;;;;;;22.30;73.90;99431.66;5052900;28;20807;-82
2023/10/14 00:06:21;;;;;;;8.40;4.70;;;;;;;22.30;74.08;99429.00;5016489;28;20781;-82
2023/10/14 00:08:58;;;;;;;5.47;4.30;;;;;;;22.30;74.26;99429.00;5015917;28;20690;-86
2023/10/14 00:11:35;;;;;;;4.80;4.17;;;;;;;22.32;75.03;99421.81;5021601;28;20678;-82
2023/10/14 00:14:09;;;;;;;6.00;4.10;;;;;;;22.32;74.83;99420.03;5018763;28;20230;-84
2023/10/14 00:16:36;;;;;;;6.30;4.80;;;;;;;22.34;74.93;99422.53;5015238;28;20712;-82
2023/10/14 00:19:04;;;;;;;6.63;4.50;;;;;;;22.33;75.58;99415.59;5018396;28;20207;-85
2023/10/14 00:21:35;;;;;;;7.93;4.57;;;;;;;22.31;75.45;99420.16;5038115;28;20721;-80
2023/10/14 00:24:03;;;;;;;7.50;5.17;;;;;;;22.33;75.98;99412.94;5020344;28;20277;-82
2023/10/14 00:26:30;;;;;;;7.47;5.10;;;;;;;22.29;76.72;99404.44;5019949;28;20191;-79
2023/10/14 00:31:41;;;;;;;6.07;4.90;;;;;;;22.31;77.08;99425.41;5023279;28;20207;-86
2023/10/14 00:34:06;;;;;;;6.47;4.63;;;;;;;22.30;77.45;99423.72;5022051;28;20629;-81
2023/10/14 00:36:34;;;;;;;6.43;5.03;;;;;;;22.29;77.26;99403.59;5048682;28;20206;-83
2023/10/14 00:39:16;;;;;;;7.13;4.97;;;;;;;22.31;77.51;99404.34;5014725;28;20223;-84
2023/10/14 00:41:43;;;;;;;7.20;5.73;;;;;;;22.27;78.35;99402.88;5016733;28;20583;-84
2023/10/14 00:44:10;;;;;;;7.83;5.17;;;;;;;22.26;78.62;99403.81;5015778;28;20658;-84
2023/10/14 00:46:42;;;;;;;6.70;4.60;;;;;;;22.23;79.18;99411.00;5020545;28;20191;-82
2023/10/14 00:49:10;;;;;;;8.03;5.67;;;;;;;22.25;79.66;99388.97;5023990;28;20194;-83
2023/10/14 00:51:42;;;;;;;6.77;5.17;;;;;;;22.26;79.67;99395.91;5023400;28;20253;-81
2023/10/14 00:54:10;;;;;;;6.60;5.23;;;;;;;22.27;79.95;99402.88;5020468;28;20187;-84
2023/10/14 00:56:40;;;;;;;6.50;4.60;;;;;;;22.22;80.28;99406.66;5021437;28;20209;-80
2023/10/14 00:59:08;;;;;;;7.70;5.23;;;;;;;22.23;80.12;99396.97;5024212;28;20195;-80
2023/10/14 01:01:55;;;;;;;9.03;5.17;;;;;;;22.19;80.25;99398.97;5020807;28;20226;-82
2023/10/14 01:04:31;;;;;;;9.50;5.20;;;;;;;22.15;80.49;99394.91;5018735;28;20210;-80
2023/10/14 01:07:04;;;;;;;6.93;5.00;;;;;;;22.15;80.40;99394.91;5022156;28;20189;-84
2023/10/14 01:12:16;;;;;;;9.50;6.17;;;;;;;22.12;80.70;99383.72;5024334;28;20202;-82
2023/10/14 01:14:52;;;;;;;8.53;5.63;;;;;;;22.07;80.99;99381.41;5017813;28;20183;-82
2023/10/14 01:17:27;;;;;;;6.67;5.60;;;;;;;22.06;81.49;99388.50;5012701;28;20219;-84
2023/10/14 01:19:54;;;;;;;8.83;5.03;;;;;;;22.03;81.43;99393.97;5020517;28;20184;-84
2023/10/14 01:22:20;;;;;;;9.00;5.50;;;;;;;22.02;81.69;99379.13;5021323;28;20293;-82
2023/10/14 01:24:45;;;;;;;6.47;5.37;;;;;;;21.99;81.72;99384.59;5015939;28;20286;-81
2023/10/14 01:27:13;;;;;;;8.30;5.63;;;;;;;21.97;82.26;99385.66;5015721;28;20179;-80
2023/10/14 01:29:41;;;;;;;6.30;5.30;;;;;;;21.96;82.50;99381.34;5017390;28;20184;-82
2023/10/14 01:32:24;;;;;;;8.53;5.97;;;;;;;21.96;83.11;99378.72;5015573;28;20227;-84
2023/10/14 01:34:56;;;;;;;12.97;6.27;;;;;;;21.95;83.65;99379.66;5038034;28;20176;-82
2023/10/14 01:37:26;;;;;;;7.30;5.80;;;;;;;21.92;84.13;99386.00;5015168;28;20238;-84
2023/10/14 01:39:56;;;;;;;9.70;6.33;;;;;;;21.92;84.72;99389.47;5014884;28;20374;-82
2023/10/14 01:42:22;;;;;;;9.27;6.27;;;;;;;21.91;84.66;99386.94;5016525;28;20218;-83
2023/10/14 01:44:53;;;;;;;6.00;5.50;;;;;;;21.87;85.01;99383.66;5018356;28;21022;-82
2023/10/14 01:47:25;;;;;;;11.20;6.47;;;;;;;21.85;85.48;99380.31;5013323;28;20183;-81
2023/10/14 01:49:51;;;;;;;10.20;6.20;;;;;;;21.83;86.08;99376.97;5012539;28;20176;-84
2023/10/14 01:52:19;;;;;;;10.53;6.50;;;;;;;21.85;86.28;99376.84;5019862;28;20211;-86
2023/10/14 01:54:45;;;;;;;8.90;5.93;;;;;;;21.83;86.91;99368.19;5018782;28;20175;-88
2023/10/14 01:57:15;;;;;;;8.70;6.23;;;;;;;21.83;87.09;99363.78;5016868;28;20553;-78
2023/10/14 01:59:40;;;;;;;7.27;6.23;;;;;;;21.80;87.31;99353.47;5014444;28;20285;-81
2023/10/14 02:02:09;;;;;;;7.27;6.07;;;;;;;21.80;87.38;99365.78;5013174;28;20235;-82
2023/10/14 02:04:36;;;;;;;11.73;6.17;;;;;;;21.78;87.38;99368.53;5019865;28;20321;-85
2023/10/14 02:07:18;;;;;;;12.37;6.00;;;;;;;21.77;88.01;99359.81;5014273;28;20184;-83
2023/10/14 02:09:43;;;;;;;7.70;5.77;;;;;;;21.74;88.40;99353.88;5015768;28;20227;-82
2023/10/14 02:12:09;;;;;;;10.07;6.00;;;;;;;21.72;88.70;99354.00;5018136;28;20215;-82
2023/10/14 02:14:34;;;;;;;7.13;6.13;;;;;;;21.71;88.85;99354.09;5022477;28;21087;-83
2023/10/14 02:17:00;;;;;;;6.83;6.13;;;;;;;21.70;88.77;99352.44;5022393;28;20197;-87
2023/10/14 02:22:00;;;;;;;10.00;6.53;;;;;;;21.68;89.21;99344.63;5021920;28;20215;-80
2023/10/14 02:24:27;;;;;;;9.27;5.77;;;;;;;21.67;89.34;99350.03;5024192;28;20170;-85
2023/10/14 02:26:53;;;;;;;6.67;5.97;;;;;;;21.64;89.71;99347.59;5035068;28;20180;-79
2023/10/14 02:29:19;;;;;;;6.97;6.00;;;;;;;21.62;89.75;99330.13;5053535;28;20201;-80
2023/10/14 02:31:45;;;;;;;8.20;6.33;;;;;;;21.61;89.74;99338.97;5036657;28;20269;-84
2023/10/14 02:34:14;;;;;;;7.37;6.60;;;;;;;21.58;89.97;99340.94;5027049;28;20209;-84
2023/10/14 02:36:48;;;;;;;7.93;6.13;;;;;;;21.57;90.02;99337.44;5021471;28;20266;-82
2023/10/14 02:39:14;;;;;;;8.07;6.40;;;;;;;21.53;90.39;99328.09;5025560;28;20242;-81
2023/10/14 02:41:43;;;;;;;8.30;6.60;;;;;;;21.54;90.50;99340.31;5023374;28;20709;-87
2023/10/14 02:46:46;;;;;;;8.67;6.43;;;;;;;21.51;90.35;99337.03;5024889;28;20513;-83
2023/10/14 02:49:14;;;;;;;10.73;6.50;;;;;;;21.51;90.73;99334.41;5024895;28;20183;-86
2023/10/14 02:51:43;;;;;;;;;;;;;;;;;;;;;
2023/10/14 02:54:18;;;;;;;7.40;5.90;;;;;;;21.50;90.49;99335.34;5030736;28;20991;-82
2023/10/14 02:56:57;;;;;;;7.27;6.53;;;;;;;21.49;90.58;99326.63;5027984;28;20179;-84
2023/10/14 02:59:36;;;;;;;7.90;6.60;;;;;;;21.49;90.91;99334.53;5019592;28;20203;-84
2023/10/14 03:02:15;;;;;;;9.73;6.57;;;;;;;21.50;90.39;99319.56;5024874;28;20246;-81
2023/10/14 03:07:50;;;;;;;7.77;5.90;;;;;;;21.46;90.64;99338.22;5028156;28;20763;-84
2023/10/14 03:10:20;;;;;;;7.10;6.40;;;;;;;21.45;90.67;99339.16;5017671;28;20554;-79
2023/10/14 03:12:49;;;;;;;10.97;6.30;;;;;;;21.46;90.58;99346.13;5020189;28;20214;-86
2023/10/14 03:15:19;;;;;;;10.07;6.17;;;;;;;21.43;90.50;99329.69;5019919;28;20189;-86
2023/10/14 03:17:56;;;;;;;9.57;6.37;;;;;;;21.44;90.43;99353.28;5016826;28;20671;-85
2023/10/14 03:25:44;;;;;;;10.70;5.73;;;;;;;21.41;100.00;99497.38;5021761;28;20196;-82
2023/10/14 03:30:55;;;;;;;7.47;4.90;;;;;;;20.86;100.00;99477.28;5030547;28;20179;-84
2023/10/14 03:33:21;;;;;;;7.70;4.20;;;;;;;20.61;100.00;99483.22;5030189;28;20223;-80
2023/10/14 03:36:05;;;;;;;5.53;4.30;;;;;;;20.33;100.00;99490.25;5019505;28;20184;-80
2023/10/14 03:41:19;;;;;;;5.53;3.87;;;;;;;19.86;100.00;99473.78;5024790;28;20250;-82
2023/10/14 03:49:06;;;;;;;7.87;3.97;;;;;;;19.32;100.00;99472.59;5015055;28;20278;-84
2023/10/14 03:51:32;;;;;;;5.00;3.27;;;;;;;19.18;100.00;99468.16;5048192;28;20256;-85
2023/10/14 03:54:06;;;;;;;4.20;3.27;;;;;;;19.06;100.00;99474.09;5022276;28;20175;-85
2023/10/14 03:56:32;;;;;;;3.53;2.87;;;;;;;18.98;100.00;99478.97;5028361;28;20183;-87
2023/10/14 03:59:01;;;;;;;5.97;3.30;;;;;;;18.83;100.00;99481.47;5020824;28;20196;-86
2023/10/14 04:01:33;;;;;;;5.10;3.60;;;;;;;18.77;100.00;99478.34;5021085;28;20239;-84
2023/10/14 04:04:01;;;;;;;4.87;3.37;;;;;;;18.68;100.00;99495.44;5016533;28;20251;-85
2023/10/14 04:06:27;;;;;;;5.90;3.77;;;;;;;18.62;100.00;99501.00;5030276;28;20198;-85
2023/10/14 04:08:54;;;;;;;6.03;3.43;;;;;;;18.55;100.00;99506.59;5035552;28;20345;-84
2023/10/14 04:11:26;;;;;;;4.13;2.90;;;;;;;18.50;100.00;99498.16;5026926;28;20212;-82
2023/10/14 04:14:13;;;;;;;6.30;3.90;;;;;;;18.46;100.00;99503.63;5032677;28;20265;-81
2023/10/14 04:19:27;;;;;;;5.97;3.50;;;;;;;18.41;100.00;99501.25;5024186;28;20237;-83
2023/10/14 04:21:57;;;;;;;6.37;3.77;;;;;;;18.39;100.00;99501.34;5029986;28;20239;-86
2023/10/14 04:26:51;;;;;;;5.53;3.90;;;;;;;18.36;100.00;99500.69;5022765;28;20187;-80
2023/10/14 04:29:36;;;;;;;6.07;4.07;;;;;;;18.42;100.00;99502.94;5041546;28;20172;-80
2023/10/14 04:32:13;;;;;;;7.37;4.27;;;;;;;18.39;100.00;99508.34;5043860;28;20211;-85
2023/10/14 04:34:43;;;;;;;6.93;4.40;;;;;;;18.43;100.00;99520.34;5033825;28;20183;-86
2023/10/14 04:37:09;;;;;;;6.00;3.67;;;;;;;18.48;100.00;99512.25;5025802;28;20271;-87
2023/10/14 04:39:42;;;;;;;7.00;4.10;;;;;;;18.50;100.00;99506.00;5024489;28;20299;-83
2023/10/14 04:42:22;;;;;;;7.30;4.43;;;;;;;18.54;100.00;99512.75;5020143;28;20212;-84
2023/10/14 04:44:55;;;;;;;6.33;4.33;;;;;;;18.58;100.00;99513.44;5021277;28;20212;-86
2023/10/14 04:47:35;;;;;;;5.43;3.70;;;;;;;18.58;100.00;99509.03;5023093;28;20184;-84
2023/10/14 04:50:14;;;;;;;8.33;4.33;;;;;;;18.55;100.00;99503.97;5029642;28;20274;-81
2023/10/14 04:52:48;;;;;;;6.77;4.30;;;;;;;18.51;100.00;99507.69;5019793;28;21084;-82
2023/10/14 04:55:28;;;;;;;5.33;4.13;;;;;;;18.50;100.00;99510.38;5015841;28;20185;-82
2023/10/14 04:58:12;;;;;;;5.33;3.70;;;;;;;18.47;100.00;99500.06;5024757;28;20200;-82
2023/10/14 05:00:42;;;;;;;5.23;3.43;;;;;;;18.46;100.00;99507.09;5018689;28;20183;-83
2023/10/14 05:03:10;;;;;;;5.40;3.37;;;;;;;18.43;100.00;99518.59;5021599;28;20262;-82
2023/10/14 05:05:38;;;;;;;5.50;3.30;;;;;;;18.47;100.00;99516.66;5021734;28;20196;-80
2023/10/14 05:08:05;;;;;;;4.63;3.03;;;;;;;18.46;100.00;99522.81;5023026;28;20227;-82
2023/10/14 05:10:31;;;;;;;4.67;2.97;;;;;;;18.46;100.00;99516.72;5024544;28;20195;-79
2023/10/14 05:12:57;;;;;;;3.43;2.60;;;;;;;18.50;100.00;99526.09;5026686;28;20208;-84
2023/10/14 05:15:27;;;;;;;4.03;2.87;;;;;;;18.50;100.00;99520.88;5022330;28;20183;-84
2023/10/14 05:17:53;;;;;;;4.67;2.60;;;;;;;18.56;100.00;99523.16;5018601;28;20195;-80
2023/10/14 05:20:48;;;;;;;2.93;2.17;;;;;;;18.54;100.00;99533.72;5024821;28;20204;-83
2023/10/14 05:23:19;;;;;;;3.53;2.23;;;;;;;18.57;100.00;99527.47;5026974;28;20237;-80
2023/10/14 05:25:48;;;;;;;3.43;2.10;;;;;;;18.58;100.00;99530.00;5026389;28;20279;-82
2023/10/14 05:28:14;;;;;;;5.10;2.20;;;;;;;18.67;100.00;99525.22;5012513;28;20192;-79
2023/10/14 05:30:39;;;;;;;5.87;2.57;;;;;;;18.66;100.00;99541.84;5016619;28;20183;-84
2023/10/14 05:33:07;;;;;;;2.87;1.63;;;;;;;18.64;100.00;99549.78;5018580;28;20287;-82
2023/10/14 05:35:40;;;;;;;3.27;1.90;;;;;;;18.66;100.00;99560.19;5025731;28;20193;-85
2023/10/14 05:38:11;;;;;;;3.87;1.80;;;;;;;18.69;100.00;99566.13;5024542;28;20201;-81
2023/10/14 05:40:38;;;;;;;4.73;2.10;;;;;;;18.72;100.00;99578.19;5015593;28;20187;-85
2023/10/14 05:43:06;;;;;;;3.60;1.60;;;;;;;18.72;100.00;99578.19;5021545;28;20207;-84
2023/10/14 05:45:34;;;;;;;3.23;1.90;;;;;;;18.72;100.00;99570.34;5016261;28;20181;-85
2023/10/14 05:48:00;;;;;;;2.70;1.53;;;;;;;18.74;100.00;99581.59;5021080;28;20197;-84
2023/10/14 05:50:25;;;;;;;3.23;1.87;;;;;;;18.73;100.00;99583.38;5025012;28;20176;-80
2023/10/14 05:52:51;;;;;;;3.13;1.70;;;;;;;18.77;100.00;99585.81;5020086;28;20197;-84
2023/10/14 05:55:19;;;;;;;5.93;1.53;;;;;;;18.77;100.00;99583.19;5016512;28;20179;-85
2023/10/14 05:57:47;;;;;;;6.23;1.70;;;;;;;18.76;100.00;99597.22;5022484;28;20201;-83
2023/10/14 06:00:23;;;;;;;2.60;1.50;;;;;;;18.82;100.00;99607.38;5023116;28;20259;-83
2023/10/14 06:02:56;;;;;;;5.80;2.13;;;;;;;18.80;100.00;99607.47;5022707;28;20205;-85
2023/10/14 06:05:31;;;;;;;3.23;1.30;;;;;;;18.78;100.00;99619.81;5021082;28;20188;-83
2023/10/14 06:08:05;;;;;;;3.33;1.60;;;;;;;18.80;100.00;99609.22;5035919;28;20226;-82
2023/10/14 06:10:36;;;;;;;2.83;1.30;;;;;;;18.84;100.00;99616.84;5024897;28;20743;-83
2023/10/14 06:13:05;;;;;;;2.97;1.23;;;;;;;18.85;100.00;99623.78;5022957;28;20212;-84
2023/10/14 06:15:32;;;;;;;2.70;1.30;;;;;;;18.87;100.00;99634.19;5033730;28;20270;-81
2023/10/14 06:17:58;;;;;;;2.27;1.20;;;;;;;18.87;100.00;99639.44;5055268;28;20225;-83
2023/10/14 06:20:23;;;;;;;3.47;1.37;;;;;;;18.88;100.00;99639.34;5025673;28;20663;-82
2023/10/14 06:22:50;;;;;;;2.67;1.30;;;;;;;18.92;100.00;99654.91;5018727;28;20208;-83
2023/10/14 06:25:16;;;;;;;3.07;1.60;;;;;;;18.94;100.00;99656.56;5017532;28;20276;-86
2023/10/14 06:27:47;;;;;;;2.57;1.53;;;;;;;19.00;100.00;99663.22;5033734;28;20180;-81
2023/10/14 06:30:19;;;;;;;3.77;3.03;;;;;;;19.02;100.00;99659.63;5027741;28;20183;-82
2023/10/14 06:32:49;;;;;;;2.40;1.60;;;;;;;19.03;100.00;99660.44;5034608;28;20244;-76
2023/10/14 06:35:19;;;;;;;4.03;2.40;;;;;;;19.06;100.00;99667.31;5065616;28;20191;-82
2023/10/14 06:37:45;;;;;;;3.43;1.70;;;;;;;19.09;100.00;99675.88;5019373;28;20737;-80
2023/10/14 06:40:18;;;;;;;3.40;1.30;;;;;;;19.15;100.00;99674.69;5021663;28;20205;-81
2023/10/14 06:42:45;;;;;;;1.77;1.17;;;;;;;19.18;100.00;99674.53;5020566;28;20220;-80
2023/10/14 06:45:17;;;;;;;2.17;1.30;;;;;;;19.19;100.00;99676.22;5019846;28;20268;-80
2023/10/14 06:47:49;;;;;;;2.83;1.20;;;;;;;19.23;100.00;99682.13;5022874;28;20184;-83
2023/10/14 06:50:20;;;;;;;1.97;0.90;;;;;;;19.25;100.00;99683.72;5020686;28;20190;-83
2023/10/14 06:52:47;;;;;;;2.50;1.10;;;;;;;19.24;100.00;99691.69;5024763;28;20210;-81
2023/10/14 06:55:12;;;;;;;1.43;0.90;;;;;;;19.27;100.00;99692.38;5020794;28;20190;-84
2023/10/14 06:57:38;;;;;;;2.30;1.00;;;;;;;19.30;100.00;99693.97;5021169;28;20184;-82
2023/10/14 07:00:12;;;;;;;2.97;1.20;;;;;;;19.31;100.00;99700.91;5028153;28;20241;-81
2023/10/14 07:02:40;;;;;;;2.90;1.10;;;;;;;19.30;100.00;99699.22;5019697;28;20210;-80
2023/10/14 07:05:09;;;;;;;2.03;1.30;;;;;;;19.30;100.00;99694.84;5019644;28;20203;-80
2023/10/14 07:07:34;;;;;;;2.63;1.13;;;;;;;19.31;100.00;99711.41;5016937;28;20192;-80
2023/10/14 07:10:01;;;;;;;3.60;1.10;;;;;;;19.32;100.00;99707.84;5001218;28;20212;-82
2023/10/14 07:12:26;;;;;;;1.17;0.80;;;;;;;19.31;100.00;99714.88;5012333;28;20773;-80
2023/10/14 07:14:53;;;;;;;2.43;1.00;;;;;;;19.29;100.00;99714.13;5018511;28;20225;-82
2023/10/14 07:17:22;;;;;;;1.53;0.80;;;;;;;19.28;100.00;99715.06;5015726;28;20998;-80
2023/10/14 07:19:47;;;;;;;1.00;0.60;;;;;;;19.29;100.00;99713.25;5017700;28;20234;-81
2023/10/14 07:22:15;;;;;;;2.40;0.90;;;;;;;19.30;100.00;99721.06;5016023;28;20235;-82
2023/10/14 07:24:41;;;;;;;3.00;1.00;;;;;;;19.29;100.00;99714.13;5020303;28;20194;-77
2023/10/14 07:27:06;;;;;;;4.73;0.80;;;;;;;19.30;100.00;99721.06;5020337;28;20491;-81
2023/10/14 07:29:32;;;;;;;1.97;0.70;;;;;;;19.31;100.00;99719.28;5017974;28;20185;-83
2023/10/14 07:31:58;;;;;;;1.37;0.80;;;;;;;19.34;100.00;99725.22;5011739;28;20232;-81
2023/10/14 07:34:23;;;;;;;2.80;0.90;;;;;;;19.39;100.00;99716.22;5021432;28;20202;-82
2023/10/14 07:36:51;;;;;;;1.43;0.90;;;;;;;19.41;100.00;99722.25;5019986;28;20201;-81
2023/10/14 07:39:27;;;;;;;1.53;0.60;;;;;;;19.45;100.00;99721.97;5022491;28;20313;-84
2023/10/14 07:41:53;;;;;;;2.50;0.90;;;;;;;19.45;100.00;99729.03;5058256;28;20213;-82
2023/10/14 07:44:19;;;;;;;1.37;0.80;;;;;;;19.45;100.00;99729.84;5016047;28;20199;-83
2023/10/14 07:46:45;;;;;;;2.03;0.70;;;;;;;19.46;100.00;99728.94;5023343;28;20192;-81
2023/10/14 07:49:11;;;;;;;0.80;0.60;;;;;;;19.46;100.00;99739.44;5022140;28;20647;-81
2023/10/14 07:51:36;;;;;;;2.27;0.90;;;;;;;19.48;100.00;99737.56;5017217;28;20534;-80
2023/10/14 07:54:02;;;;;;;1.10;0.80;;;;;;;19.48;100.00;99761.19;5019862;28;20190;-83
2023/10/14 07:56:27;;;;;;;2.00;0.40;;;;;;;19.30;100.00;99784.03;5019697;28;20235;-83
2023/10/14 07:58:53;;;;;;;1.33;0.30;;;;;;;19.19;100.00;99802.94;5025976;28;20355;-84
2023/10/14 08:01:22;;;;;;;1.90;0.50;;;;;;;19.05;100.00;99802.84;5019413;28;20222;-79
2023/10/14 08:03:48;;;;;;;0.80;0.60;;;;;;;18.85;100.00;99809.91;5016883;28;20228;-80
2023/10/14 08:06:17;;;;;;;2.20;0.70;;;;;;;18.65;100.00;99810.09;5010909;28;20653;-80
2023/10/14 08:08:47;;;;;;;1.27;0.70;;;;;;;18.51;100.00;99818.63;5017975;28;20192;-80
2023/10/14 08:11:16;;;;;;;1.67;0.70;;;;;;;18.40;100.00;99825.25;5012760;28;20187;-79
2023/10/14 08:13:43;;;;;;;0.80;0.40;;;;;;;18.34;100.00;99832.56;5010611;28;20191;-78
2023/10/14 08:16:11;;;;;;;2.23;0.50;;;;;;;18.28;100.00;99839.78;5011536;28;20194;-79
2023/10/14 08:18:37;;;;;;;0.50;0.40;;;;;;;18.27;100.00;99839.88;5016781;28;20346;-77
2023/10/14 08:21:03;;;;;;;1.23;0.70;;;;;;;18.26;100.00;99844.25;5007726;28;20379;-80
2023/10/14 08:23:29;;;;;;;0.90;0.70;;;;;;;18.23;100.00;99836.53;5008022;28;20194;-77
2023/10/14 08:25:55;;;;;;;1.90;0.70;;;;;;;18.22;100.00;99836.63;5015881;28;20182;-78
2023/10/14 08:28:24;;;;;;;1.47;0.70;;;;;;;18.22;100.00;99852.34;5018853;28;20215;-80
2023/10/14 08:30:50;;;;;;;0.93;0.47;;;;;;;18.24;100.00;99860.97;5018621;28;20847;-80
2023/10/14 08:33:21;;;;;;;0.83;0.50;;;;;;;18.19;100.00;99874.28;5016745;28;20328;-80
2023/10/14 08:35:48;;;;;;;1.90;0.70;;;;;;;18.17;100.00;99876.13;5016036;28;20223;-80
2023/10/14 08:38:17;;;;;;;2.83;0.50;;;;;;;18.09;100.00;99875.63;5019552;28;20247;-76
2023/10/14 08:40:44;;;;;;;0.50;0.40;;;;;;;18.08;100.00;99866.06;5038197;28;20537;-76
2023/10/14 08:43:19;;;;;;;0.90;0.60;;;;;;;18.12;100.00;99871.13;5024712;28;20215;-79
2023/10/14 08:45:48;;;;;;;0.80;0.47;;;;;;;18.19;100.00;99874.28;5008510;28;20196;-79
2023/10/14 08:48:24;;;;;;;0.90;0.70;;;;;;;18.25;100.00;99875.75;5017132;28;20217;-78
2023/10/14 08:50:57;;;;;;;0.63;0.47;;;;;;;18.23;100.00;99869.75;5019713;28;20188;-80
2023/10/14 08:53:23;;;;;;;0.60;0.50;;;;;;;18.24;100.00;99869.66;5043051;28;20210;-81
2023/10/14 08:55:52;;;;;;;1.13;0.70;;;;;;;18.28;100.00;99870.38;5014797;28;20200;-78
2023/10/14 08:58:19;;;;;;;0.70;0.40;;;;;;;18.32;100.00;99877.16;5017093;28;20217;-78
2023/10/14 09:00:45;;;;;;;2.00;0.80;;;;;;;18.38;100.00;99874.25;5014832;28;20534;-82
2023/10/14 09:03:11;;;;;;;1.53;0.80;;;;;;;18.41;100.00;99878.50;5019227;28;20220;-79
2023/10/14 09:05:41;;;;;;;2.00;1.03;;;;;;;18.43;100.00;99876.66;5018066;28;20295;-79
2023/10/14 09:08:11;;;;;;;0.90;0.60;;;;;;;18.43;100.00;99884.50;5019972;28;20184;-79
2023/10/14 09:10:37;;;;;;;2.00;0.70;;;;;;;18.46;100.00;99883.50;5032447;28;20194;-79
2023/10/14 09:13:06;;;;;;;1.30;0.73;;;;;;;18.44;100.00;99878.34;5021413;28;20211;-78
2023/10/14 09:15:39;;;;;;;0.90;0.50;;;;;;;18.45;100.00;99881.84;5021034;28;20190;-81
2023/10/14 09:18:11;;;;;;;2.57;0.90;;;;;;;18.42;100.00;99883.66;5023832;28;20206;-80
2023/10/14 09:20:38;;;;;;;0.80;0.60;;;;;;;18.37;100.00;99890.91;5009716;28;20190;-79
2023/10/14 09:23:16;;;;;;;2.30;0.70;;;;;;;18.31;100.00;99887.72;5018973;28;20704;-79
2023/10/14 09:25:42;;;;;;;3.43;0.70;;;;;;;18.18;100.00;99888.31;5023043;28;20220;-78
2023/10/14 09:28:08;;;;;;;1.10;0.70;;;;;;;18.04;100.00;99885.50;5024690;28;20186;-80
2023/10/14 09:30:35;;;;;;;1.23;0.50;;;;;;;17.97;100.00;99897.97;5013358;28;20609;-79
2023/10/14 09:33:02;;;;;;;0.77;0.60;;;;;;;17.94;100.00;99885.03;5021155;28;20211;-78
2023/10/14 09:35:29;;;;;;;1.60;0.70;;;;;;;17.96;100.00;99885.81;5014916;28;20196;-80
2023/10/14 09:37:55;;;;;;;1.90;0.80;;;;;;;17.87;100.00;99887.06;5022419;28;20303;-79
2023/10/14 09:40:21;;;;;;;1.60;0.60;;;;;;;17.83;100.00;99889.00;5017395;28;20633;-76
2023/10/14 09:42:48;;;;;;;1.83;0.63;;;;;;;17.80;100.00;99893.50;5009195;28;20586;-80
2023/10/14 09:45:19;;;;;;;1.43;1.00;;;;;;;17.78;100.00;99900.56;5014758;28;20198;-77
2023/10/14 09:47:45;;;;;;;2.30;0.90;;;;;;;17.79;100.00;99908.38;5021726;28;20200;-79
2023/10/14 09:50:13;;;;;;;1.07;0.70;;;;;;;17.72;100.00;99896.47;5019423;28;20187;-78
2023/10/14 09:52:45;;;;;;;3.87;1.00;;;;;;;17.72;100.00;99898.25;5008389;28;20263;-78
2023/10/14 09:55:14;;;;;;;1.27;0.80;;;;;;;17.67;100.00;99904.53;5018500;28;20189;-79
2023/10/14 09:57:45;;;;;;;2.53;1.10;;;;;;;17.65;100.00;99905.53;5017460;28;20187;-81
2023/10/14 10:00:11;;;;;;;2.33;0.90;;;;;;;17.60;100.00;99899.63;5016713;28;20655;-79
2023/10/14 10:02:40;;;;;;;1.73;0.80;;;;;;;17.54;100.00;99907.78;5018316;28;20231;-81
2023/10/14 10:05:07;;;;;;;2.00;0.90;;;;;;;17.56;100.00;99906.78;5019803;28;20217;-80
2023/10/14 10:08:04;;;;;;;3.20;1.30;;;;;;;17.55;100.00;99912.06;5024458;28;20210;-81
2023/10/14 10:10:32;;;;;;;1.50;0.90;;;;;;;17.49;100.00;99911.44;5015432;28;20450;-81
2023/10/14 10:12:59;;;;;;;2.53;0.83;;;;;;;17.51;100.00;99914.84;5017185;28;20348;-81
2023/10/14 10:15:25;;;;;;;1.73;0.70;;;;;;;17.49;100.00;99910.56;5013769;28;20201;-79
2023/10/14 10:18:06;;;;;;;1.23;1.00;;;;;;;17.50;100.00;99920.13;5011596;28;20228;-77
2023/10/14 10:20:41;;;;;;;1.70;0.90;;;;;;;17.55;100.00;99919.91;5015530;28;20656;-79
2023/10/14 10:23:07;;;;;;;1.77;0.87;;;;;;;17.62;100.00;99929.19;5011591;28;20307;-81
2023/10/14 10:25:35;;;;;;;0.80;0.67;;;;;;;17.62;100.00;99934.44;5013034;28;20192;-82
2023/10/14 10:28:26;;;;;;;1.50;0.70;;;;;;;17.61;100.00;99944.06;5014131;28;20192;-79
2023/10/14 10:30:56;;;;;;;1.70;0.87;;;;;;;17.55;100.00;99946.94;5014599;28;20299;-79
2023/10/14 10:33:24;;;;;;;0.93;0.63;;;;;;;17.48;100.00;99935.88;5039097;28;20210;-80
2023/10/14 10:36:03;;;;;;;3.57;1.20;;;;;;;17.44;100.00;99946.56;5017359;28;20630;-83
2023/10/14 10:38:32;;;;;;;1.00;0.80;;;;;;;17.40;100.00;99950.22;5022669;28;20212;-79
2023/10/14 10:41:26;;;;;;;1.33;0.83;;;;;;;17.34;100.00;99949.53;5050285;28;20183;-78
2023/10/14 10:44:05;;;;;;;1.97;1.00;;;;;;;17.32;100.00;99953.16;5017909;28;20182;-79
2023/10/14 10:46:31;;;;;;;1.50;0.87;;;;;;;17.28;100.00;99947.22;5058608;28;20234;-78
2023/10/14 10:48:59;;;;;;;1.07;0.70;;;;;;;17.21;100.00;99956.22;5048319;28;20208;-79
2023/10/14 10:51:29;;;;;;;1.67;0.90;;;;;;;17.22;100.00;99952.69;5030848;28;20208;-82
2023/10/14 10:53:55;;;;;;;0.97;0.60;;;;;;;17.10;100.00;99955.81;5023174;28;20278;-78
2023/10/14 10:56:21;;;;;;;2.23;1.00;;;;;;;17.09;100.00;99956.72;5018516;28;20195;-79
2023/10/14 10:58:46;;;;;;;1.77;0.80;;;;;;;17.03;100.00;99957.84;5025646;28;20208;-79
2023/10/14 11:01:14;;;;;;;1.00;0.80;;;;;;;16.99;100.00;99954.50;5017636;28;20188;-80
2023/10/14 11:03:42;;;;;;;1.83;0.70;;;;;;;16.97;100.00;99950.25;5018135;28;20187;-79
2023/10/14 11:06:13;;;;;;;1.20;0.90;;;;;;;16.97;100.00;99948.50;5018813;28;20192;-78
2023/10/14 11:08:41;;;;;;;1.10;0.80;;;;;;;17.04;100.00;99949.91;5020782;28;20176;-81
2023/10/14 11:11:07;;;;;;;1.00;0.80;;;;;;;17.04;100.00;99956.94;5018527;28;20291;-79
2023/10/14 11:13:36;;;;;;;0.80;0.53;;;;;;;17.05;100.00;99964.69;5019732;28;20271;-82
2023/10/14 11:16:12;;;;;;;0.90;0.80;;;;;;;17.11;100.00;99968.81;5023113;28;20191;-82
2023/10/14 11:18:46;;;;;;;1.47;0.80;;;;;;;17.14;100.00;99960.84;5016781;28;20266;-84
2023/10/14 11:21:12;;;;;;;1.27;0.77;;;;;;;17.17;100.00;99975.56;5017244;28;20195;-81
2023/10/14 11:23:39;;;;;;;1.27;0.80;;;;;;;17.14;100.00;99981.78;5016448;28;20215;-82
2023/10/14 11:26:15;;;;;;;1.00;0.80;;;;;;;17.12;100.00;99975.75;5019816;28;20234;-83
2023/10/14 11:28:45;;;;;;;1.00;0.90;;;;;;;17.12;100.00;99982.75;5019228;28;20286;-76
2023/10/14 11:31:11;;;;;;;0.83;0.60;;;;;;;17.12;100.00;99982.75;5017047;28;20780;-80
2023/10/14 11:33:36;;;;;;;1.80;1.10;;;;;;;17.21;100.00;99988.47;5015559;28;20307;-80
2023/10/14 11:36:03;;;;;;;1.30;1.00;;;;;;;17.20;100.00;99983.28;5045753;28;20930;-81
2023/10/14 11:38:30;;;;;;;2.23;0.93;;;;;;;17.17;100.00;99983.41;5011590;28;20744;-79
2023/10/14 11:40:58;;;;;;;1.13;0.93;;;;;;;17.12;100.00;99987.97;5015014;28;20186;-79
2023/10/14 11:43:24;;;;;;;1.00;0.90;;;;;;;17.06;100.00;99986.47;5016622;28;20214;-78
2023/10/14 11:45:51;;;;;;;1.30;0.93;;;;;;;17.04;100.00;99988.31;5023461;28;20183;-78
2023/10/14 11:48:24;;;;;;;1.33;0.80;;;;;;;17.02;100.00;99996.19;5015339;28;20574;-78
2023/10/14 11:51:00;;;;;;;2.60;1.30;;;;;;;17.02;100.00;99987.50;5021620;28;20195;-80
2023/10/14 11:53:27;;;;;;;1.10;1.00;;;;;;;16.97;100.00;99992.94;5021045;28;20211;-79
2023/10/14 11:56:00;;;;;;;2.27;0.93;;;;;;;16.98;100.00;99993.75;5009645;28;20184;-79
2023/10/14 11:58:32;;;;;;;1.83;1.13;;;;;;;16.95;100.00;99981.69;5022330;28;21093;-81
2023/10/14 12:00:58;;;;;;;1.43;1.20;;;;;;;16.88;100.00;99988.03;5018810;28;20188;-78
2023/10/14 12:03:27;;;;;;;1.83;1.10;;;;;;;16.96;100.00;99990.34;5022223;28;20237;-81
2023/10/14 12:06:00;;;;;;;1.10;1.00;;;;;;;16.99;100.00;100004.19;5023947;28;20195;-79
2023/10/14 12:08:30;;;;;;;1.57;1.10;;;;;;;17.04;100.00;100004.81;5023049;28;20188;-79
2023/10/14 12:10:57;;;;;;;2.00;1.03;;;;;;;17.09;100.00;100001.19;5021897;28;20209;-78
2023/10/14 12:13:23;;;;;;;1.60;1.10;;;;;;;17.18;100.00;100016.47;5021734;28;20340;-80
2023/10/14 12:15:49;;;;;;;1.63;1.20;;;;;;;17.26;100.00;100009.19;5026653;28;20221;-81